EDDE/ERF METAR and TAF weather

Enter ICAO airport designator
Station Type Date Time Source
EDDE METAR 2018/09/21 23:20 UTC NOAA

EDDE 212320Z 24015KT CAVOK 11/04 Q1016


Station Type Date Time Source
EDDE Decoded METAR 2018/09/21 23:20 UTC NOAA

Erfurt-Bindersleben, Germany (EDDE) 50-59N 010-58E 322M
Sep 21, 2018 - 07:20 PM EDT / 2018.09.21 2320 UTC
Wind: from the WSW (240 degrees) at 17 MPH (15 KT):0
Visibility: greater than 7 mile(s):0
Temperature: 51 F (11 C)
Dew Point: 39 F (4 C)
Relative Humidity: 61%
Pressure (altimeter): 30.00 in. Hg (1016 hPa)
ob: EDDE 212320Z 24015KT CAVOK 11/04 Q1016
cycle: 23

Station Type Date Time Source
EDDE TAF 2018/09/21 18:27 UTC NOAA

TAF TAF EDDE 211700Z 2118/2218 25010G20KT 9999 SCT035
TEMPO 2208/2215 27020G30KT


Example: see airport list